Knoxville, Tennessee
Current Conditions -  °F | °C
As of 2:53 AM on Friday 21 Nov 2014 (Local Time) from KTYS Reporting Station
Clear Clear  
Wind Chill: -4°   Ceiling: Unl
Heat Index: -1°   Visibility: 10mi
Dew Point: -5°   Wind: 7mph
Humidity: 72%   Direction: 260°W
Pressure: 30.32"   Gusts: NA
Location:  35.96°N, 83.92°W
Report Text: KTYS 210753Z 26006KT 10SM CLR M01/M05 A3032 RMK AO2 SLP271 T10061050
Loading
Personal Weather Stations






























Interactive Weather Map New forecast layout! Learn more

10-Day Weather Forecast

Advertisements
Track Severe Weather on mobile